EGNM/LBA METAR and TAF weather

Enter ICAO airport designator
Station Type Date Time Source
EGNM METAR 2019/06/19 01:50 UTC NOAA

EGNM 190150Z VRB01KT 5000 RA SCT003 BKN008 13/13 Q1009


Station Type Date Time Source
EGNM Decoded METAR 2019/06/19 01:50 UTC NOAA

Leeds And Bradford, United Kingdom (EGNM) 53-52N 001-39W
Jun 18, 2019 - 09:50 PM EDT / 2019.06.19 0150 UTC
Wind: Variable at 1 MPH (1 KT):0
Visibility: 3 mile(s):0
Sky conditions: mostly cloudy
Weather: rain
Temperature: 55 F (13 C)
Dew Point: 55 F (13 C)
Relative Humidity: 100%
Pressure (altimeter): 29.80 in. Hg (1009 hPa)
ob: EGNM 190150Z VRB01KT 5000 RA SCT003 BKN008 13/13 Q1009
cycle: 2

Station Type Date Time Source
EGNM TAF 2019/06/18 18:09 UTC NOAA

TAF TAF EGNM 181700Z 1818/1918 30004KT 9999 SCT030 PROB30
TEMPO 1821/1904 7000 RA BKN014
TEMPO 1904/1916 7000 RA BKN009 PROB40
TEMPO 1904/1912 2000 +RADZ BR BKN003

Example: see airport list